Latest Coastal Weather Observations for Larapuna (Eddystone Point)

IDT60701

Issued at 1:12 pm EST Tuesday 30 August 2016 (issued every 10 minutes, with the page automatically refreshed every 10 minutes)

About coastal observations | Map of coastal stations | Coastal observations for TAS | Marine services | Other Formats
Station Details ID: 092045 Name: LARAPUNA (EDDYSTONE POINT) Lat: -40.99 Lon: 148.35 Height: 19.7 m
Data from the previous 72 hours. | See also: Recent months at Larapuna (Eddystone Point)
Date/Time
EST
Temp
°C
Wind Pressure Rain since
9am
mm
Weather Cloud Vis
km
Sea
Height
m
Swell
Dir  Spd
kts
Gust
kts
hPa Trend Height
m
Period
s
Dir
30/01:00pm 14.2 S 7 9 1020.8 - 0.0 - - - - - - -
30/12:30pm 14.0 SSE 3 5 1021.7 - 0.0 - - - - - - -
30/12:00pm 14.2 S 7 8 1022.3 - 0.0 - - - - - - -
30/11:30am 14.7 S 8 10 1022.7 - 0.0 - - - - - - -
30/11:00am 14.9 S 7 9 1023.3 - 0.0 - - - - - - -
30/10:30am 14.3 S 7 9 1023.4 - 0.0 - - - - - - -
30/10:00am 13.5 SSE 6 7 1024.0 - 0.0 - - - - - - -
30/09:30am 13.2 S 5 6 1024.1 - 0.0 - - - - - - -
30/09:00am 12.0 SSW 5 6 1024.6 - 0.0 - - - - - - -
30/08:30am 11.0 S 5 5 1024.7 - 0.0 - - - - - - -
30/08:00am 10.6 SSW 6 6 1024.7 - 0.0 - - - - - - -
30/07:30am 10.2 S 5 5 1024.8 - 0.0 - - - - - - -
30/07:00am 9.1 SSW 5 6 1024.7 - 0.0 - - - - - - -
30/06:30am 8.8 SSW 5 6 1024.4 - 0.0 - - - - - - -
30/06:00am 9.1 S 6 7 1024.2 - 0.0 - - - - - - -
30/05:30am 9.0 SW 5 6 1024.3 - 0.0 - - - - - - -
30/05:00am 8.8 SSW 6 7 1024.2 - 0.0 - - - - - - -
30/04:30am 8.6 SSW 5 6 1024.2 - 0.0 - - - - - - -
30/04:00am 8.3 SSW 5 5 1024.0 - 0.0 - - - - - - -
30/03:30am 8.1 SW 5 5 1024.1 - 0.0 - - - - - - -
30/03:00am 7.7 SW 5 6 1024.3 - 0.0 - - - - - - -
30/02:30am 7.6 S 4 5 1024.2 - 0.0 - - - - - - -
30/02:00am 7.9 SSW 5 6 1024.7 - 0.0 - - - - - - -
30/01:30am 7.8 SSW 4 5 1025.1 - 0.0 - - - - - - -
30/01:00am 7.8 SSW 4 5 1025.2 - 0.0 - - - - - - -
30/12:30am 7.6 SW 5 6 1025.6 - 0.0 - - - - - - -
30/12:00am 7.5 SW 7 7 1025.4 - 0.0 - - - - - - -
 
Date/Time
EST
Temp
°C
Wind Pressure Rain since
9am
mm
Weather Cloud Vis
km
Sea
Height
m
Swell
Dir  Spd
kts
Gust
kts
hPa Trend Height
m
Period
s
Dir
29/11:30pm 8.1 WSW 7 7 1025.5 - 0.0 - - - - - - -
29/11:00pm 7.1 W 8 8 1025.5 - 0.0 - - - - - - -
29/10:30pm 7.2 W 8 9 1025.5 - 0.0 - - - - - - -
29/10:00pm 7.4 WNW 7 8 1025.3 - 0.0 - - - - - - -
29/09:30pm 7.9 NW 7 8 1025.3 - 0.0 - - - - - - -
29/09:00pm 7.5 WNW 6 6 1025.1 - 0.0 - - - - - - -
29/08:30pm 8.2 NW 8 9 1025.0 - 0.0 - - - - - - -
29/08:00pm 8.9 NW 8 9 1024.9 - 0.0 - - - - - - -
29/07:30pm 9.5 NW 9 11 1024.8 - 0.0 - - - - - - -
29/07:00pm 9.9 NW 9 11 1024.6 - 0.0 - - - - - - -
29/06:30pm 10.1 NNW 8 10 1024.4 - 0.0 - - - - - - -
29/06:00pm 10.3 NNW 7 9 1024.1 - 0.0 - - - - - - -
29/05:30pm 10.9 NW 9 12 1023.9 - 0.0 - - - - - - -
29/05:00pm 11.9 NW 11 15 1023.7 - 0.0 - - - - - - -
29/04:30pm 12.7 NW 12 16 1023.4 - 0.0 - - - - - - -
29/04:00pm 13.2 NW 13 17 1023.0 - 0.0 - - - - - - -
29/03:30pm 13.8 NW 11 15 1022.9 - 0.0 - - - - - - -
29/03:00pm 13.3 NW 10 16 1022.9 - 0.0 - - - - - - -
29/02:30pm 12.4 NNW 17 21 1023.0 - 0.0 - - - - - - -
29/02:00pm 12.4 N 18 22 1023.1 - 0.0 - - - - - - -
29/01:30pm 12.5 N 15 20 1023.3 - 0.0 - - - - - - -
29/01:00pm 13.0 N 15 18 1023.3 - 0.0 - - - - - - -
29/12:30pm 12.8 N 13 17 1023.6 - 0.0 - - - - - - -
29/12:00pm 12.8 N 11 15 1024.1 - 0.0 - - - - - - -
29/11:30am 12.6 N 10 13 1024.5 - 0.0 - - - - - - -
29/11:00am 12.8 NE 5 7 1024.8 - 0.0 - - - - - - -
29/10:30am 11.8 NNE 5 6 1025.0 - 0.0 - - - - - - -
29/10:00am 11.1 SSE 4 5 1024.9 - 0.0 - - - - - - -
29/09:30am 10.1 S 5 6 1024.9 - 0.0 - - - - - - -
29/09:00am 10.0 SSW 6 7 1024.9 - 0.2 - - - - - - -
29/08:30am 8.6 SW 6 7 1024.8 - 0.2 - - - - - - -
29/08:00am 7.0 SW 7 8 1024.5 - 0.2 - - - - - - -
29/07:30am 5.9 SW 7 8 1024.3 - 0.2 - - - - - - -
29/07:00am 5.6 SSW 6 8 1024.0 - 0.2 - - - - - - -
29/06:30am 5.3 WSW 7 11 1023.5 - 0.2 - - - - - - -
29/06:00am 5.3 WNW 10 11 1023.1 - 0.2 - - - - - - -
29/05:30am 6.2 NW 8 9 1022.8 - 0.2 - - - - - - -
29/05:00am 5.3 NW 7 8 1022.5 - 0.2 - - - - - - -
29/04:30am 5.1 NW 7 7 1022.2 - 0.2 - - - - - - -
29/04:00am 5.4 NW 6 6 1022.0 - 0.2 - - - - - - -
29/03:30am 4.4 WNW 7 9 1022.1 - 0.2 - - - - - - -
29/03:00am 5.2 NW 5 6 1022.0 - 0.2 - - - - - - -
29/02:30am 6.4 WSW 4 5 1021.9 - 0.2 - - - - - - -
29/02:00am 6.3 SW 3 4 1021.9 - 0.2 - - - - - - -
29/01:30am 5.6 WSW 5 7 1021.9 - 0.2 - - - - - - -
29/01:00am 5.6 WSW 7 9 1021.7 - 0.2 - - - - - - -
29/12:30am 5.6 SSW 7 8 1021.4 - 0.2 - - - - - - -
29/12:00am 5.7 WSW 5 7 1021.4 - 0.2 - - - - - - -
 
Date/Time
EST
Temp
°C
Wind Pressure Rain since
9am
mm
Weather Cloud Vis
km
Sea
Height
m
Swell
Dir  Spd
kts
Gust
kts
hPa Trend Height
m
Period
s
Dir
28/11:30pm 6.3 WSW 11 13 1021.0 - 0.2 - - - - - - -
28/11:00pm 6.1 WSW 10 12 1020.9 - 0.2 - - - - - - -
28/10:30pm 6.6 WSW 5 8 1020.9 - 0.2 - - - - - - -
28/10:00pm 6.7 SW 5 7 1020.7 - 0.2 - - - - - - -
28/09:30pm 7.2 WSW 5 10 1020.5 - 0.2 - - - - - - -
28/09:00pm 6.1 WNW 6 7 1020.2 - 0.2 - - - - - - -
28/08:30pm 5.9 W 7 9 1020.0 - 0.2 - - - - - - -
28/08:00pm 6.1 W 6 7 1019.8 - 0.2 - - - - - - -
28/07:30pm 6.8 W 9 11 1019.4 - 0.2 - - - - - - -
28/07:00pm 7.3 W 10 11 1019.2 - 0.2 - - - - - - -
28/06:30pm 7.8 W 11 15 1018.7 - 0.2 - - - - - - -
28/06:00pm 8.9 NW 11 16 1018.4 - 0.2 - - - - - - -
28/05:30pm 9.6 NW 13 18 1017.9 - 0.2 - - - - - - -
28/05:00pm 10.5 NW 13 17 1017.5 - 0.2 - - - - - - -
28/04:30pm 11.3 WNW 10 14 1017.2 - 0.2 - - - - - - -
28/04:00pm 11.8 WNW 11 15 1017.1 - 0.2 - - - - - - -
28/03:30pm 11.9 WNW 8 11 1017.0 - 0.2 - - - - - - -
28/03:00pm 11.3 NNW 9 14 1016.9 - 0.2 - - - - - - -
28/02:30pm 11.2 ENE 12 18 1016.8 - 0.2 - - - - - - -
28/02:00pm 11.9 ENE 9 11 1016.8 - 0.2 - - - - - - -
28/01:30pm 12.6 ENE 6 9 1017.0 - 0.2 - - - - - - -
28/01:00pm 12.7 NE 7 8 1017.0 - 0.2 - - - - - - -
28/12:30pm 12.9 ESE 5 7 1017.1 - 0.0 - - - - - - -
28/12:00pm 10.7 SSE 6 9 1017.1 - 0.0 - - - - - - -
28/11:30am 11.4 S 6 9 1017.0 - 0.0 - - - - - - -
28/11:00am 11.5 S 11 14 1017.0 - 0.0 - - - - - - -
28/10:30am 12.5 SSW 13 15 1016.8 - 0.0 - - - - - - -
28/10:00am 11.7 SSW 13 17 1016.5 - 0.0 - - - - - - -
28/09:30am 10.4 S 16 20 1016.3 - 0.0 - - - - - - -
28/09:00am 9.9 SSW 22 26 1015.9 - 1.6 - - - - - - -
28/08:30am 8.9 SSW 21 23 1015.3 - 1.6 - - - - - - -
28/08:00am 8.6 SSW 14 21 1014.8 - 1.6 - - - - - - -
28/07:30am 8.2 S 13 15 1014.4 - 1.6 - - - - - - -
28/07:00am 8.1 S 10 13 1013.5 - 1.6 - - - - - - -
28/06:30am 8.4 SW 13 23 1012.6 - 1.4 - - - - - - -
28/06:00am 9.5 WNW 11 17 1011.4 - 1.4 - - - - - - -
28/05:30am 9.9 W 12 18 1011.2 - 1.4 - - - - - - -
28/05:04am 9.9 W 16 26 1010.3 - 1.4 - - - - - - -
28/05:00am 10.0 W 17 26 1010.1 - 1.4 - - - - - - -
28/04:35am 10.1 WNW 21 31 1008.7 - 1.4 - - - - - - -
28/04:30am 10.1 WNW 23 31 1008.3 - 1.4 - - - - - - -
28/04:01am 10.0 WNW 23 33 1008.5 - 1.4 - - - - - - -
28/04:00am 10.0 WNW 24 33 1008.5 - 1.4 - - - - - - -
28/03:30am 10.3 WNW 25 36 1008.4 - 1.2 - - - - - - -
28/03:00am 10.7 NW 26 37 1008.4 - 1.2 Rain - - - - - -
28/02:30am 10.9 NW 29 39 1008.3 - 0.6 - - - - - - -
28/02:00am 11.2 NW 32 50 1007.9 - 0.2 - - - - - - -
28/01:30am 12.1 NW 31 46 1008.0 - 0.2 - - - - - - -
28/01:00am 11.8 NW 27 42 1008.8 - 0.2 - - - - - - -
28/12:30am 12.0 NW 25 35 1009.5 - 0.2 - - - - - - -
28/12:00am 12.0 NW 25 35 1009.6 - 0.2 - - - - - - -
 
Date/Time
EST
Temp
°C
Wind Pressure Rain since
9am
mm
Weather Cloud Vis
km
Sea
Height
m
Swell
Dir  Spd
kts
Gust
kts
hPa Trend Height
m
Period
s
Dir
27/11:30pm 11.9 NW 27 37 1010.0 - 0.2 - - - - - - -
27/11:05pm 12.0 NW 25 35 1010.5 - 0.2 - - - - - - -
27/11:00pm 11.9 NW 25 34 1010.7 - 0.2 - - - - - - -
27/10:37pm 12.0 NW 21 31 1011.3 - 0.2 - - - - - - -
27/10:30pm 11.9 NW 20 29 1011.7 - 0.2 - - - - - - -
27/10:16pm 11.8 NW 20 30 1011.9 - 0.2 - - - - - - -
27/10:00pm 11.5 NW 18 25 1012.3 - 0.0 - - - - - - -
27/09:47pm 11.5 NW 18 28 1012.4 - 0.0 - - - - - - -
27/09:30pm 11.6 NW 19 28 1012.6 - 0.0 - - - - - - -
27/09:13pm 11.6 NW 20 30 1012.9 - 0.0 - - - - - - -
27/09:00pm 11.5 NW 19 27 1012.9 - 0.0 - - - - - - -
27/08:30pm 11.5 NW 17 25 1013.0 - 0.0 - - - - - - -
27/08:00pm 11.3 NW 19 26 1013.2 - 0.0 - - - - - - -
27/07:30pm 11.2 NW 19 26 1013.0 - 0.0 - - - - - - -
27/07:01pm 11.5 NW 19 29 1013.1 - 0.0 - - - - - - -
27/07:00pm 11.5 NW 20 29 1013.1 - 0.0 - - - - - - -
27/06:30pm 11.1 NW 20 27 1013.1 - 0.0 - - - - - - -
27/06:00pm 11.4 NW 18 24 1013.1 - 0.0 - - - - - - -
27/05:30pm 11.5 NW 17 27 1012.9 - 0.0 - - - - - - -
27/05:11pm 11.5 NW 20 30 1012.6 - 0.0 - - - - - - -
27/05:00pm 11.4 NW 21 29 1012.4 - 0.0 - - - - - - -
27/04:30pm 11.8 WNW 24 42 1012.4 - 0.0 - - - - - - -
27/04:00pm 12.5 WNW 27 40 1011.7 - 0.0 - - - - - - -
27/03:30pm 12.4 WNW 25 35 1011.9 - 0.0 - - - - - - -
27/03:00pm 11.9 WNW 22 34 1012.2 - 0.0 - - - - - - -
27/02:47pm 12.7 NW 21 32 1012.4 - 0.0 - - - - - - -
27/02:30pm 13.1 WNW 23 32 1012.5 - 0.0 - - - - - - -
27/02:00pm 14.2 WNW 24 39 1012.4 - 0.0 - - - - - - -
27/01:30pm 13.7 WNW 21 35 1012.6 - 0.0 - - - - - - -

Other Formats:

Comma delimited format used in spreadsheet applications
http://www.bom.gov.au/fwo/IDT60701/IDT60701.94983.axf

JavaScript Object Notation format (JSON) in row-major order
http://www.bom.gov.au/fwo/IDT60701/IDT60701.94983.json